Latest Coastal Weather Observations for Whyalla

IDS60701

Issued at 2:51 pm CST Sunday 31 July 2016 (issued every 10 minutes, with the page automatically refreshed every 10 minutes)

About coastal observations | Map of coastal stations | Coastal observations for SA | Marine services | Other Formats
Station Details ID: 018120 Name: WHYALLA AERO Lat: -33.05 Lon: 137.52 Height: 9.3 m
Data from the previous 72 hours. | See also: Recent months at Whyalla
Date/Time
CST
Temp
°C
Wind Pressure Rain since
9am
mm
Weather Cloud Vis
km
Sea
Height
m
Swell
Dir  Spd
kts
Gust
kts
hPa Trend Height
m
Period
s
Dir
31/02:30pm 20.0 N 11 16 1011.5 - 0.0 - Partly cloudy 10 - - - -
31/02:00pm 19.8 N 12 17 1012.6 - 0.0 - Partly cloudy 10 - - - -
31/01:30pm 19.5 NNW 13 16 1012.7 - 0.0 - Partly cloudy 10 - - - -
31/01:00pm 19.0 NNW 14 18 1013.4 - 0.0 - Partly cloudy 10 - - - -
31/12:30pm 18.7 N 13 17 1013.6 - 0.0 - Partly cloudy 10 - - - -
31/12:00pm 17.8 N 8 12 1014.3 - 0.0 - Cloudy 10 - - - -
31/11:30am 17.3 NNW 6 8 1014.8 - 0.0 - Partly cloudy 10 - - - -
31/11:00am 16.4 NNW 8 10 1015.5 - 0.0 - Partly cloudy 10 - - - -
31/10:30am 15.5 N 1 4 1016.0 - 0.0 - Cloudy 10 - - - -
31/10:00am 14.6 NNE 4 6 1016.6 - 0.0 - Cloudy 10 - - - -
31/09:30am 13.8 NE 3 5 1016.5 - 0.0 - Partly cloudy 10 - - - -
31/09:00am 13.3 N 2 4 1017.1 - 0.0 - Cloudy 10 - - - -
31/08:30am 12.9 NNW 2 4 1016.9 - 0.0 - Cloudy 10 - - - -
31/08:00am 12.5 SW 1 3 1016.7 - 0.0 - Cloudy 10 - - - -
31/07:30am 12.2 WSW 4 4 1016.9 - 0.0 - Cloudy 10 - - - -
31/07:00am 12.3 CALM 0 0 1016.3 - 0.0 - Partly cloudy 10 - - - -
31/06:30am 12.8 NE 2 4 1016.1 - 0.0 - Cloudy 10 - - - -
31/06:00am 12.4 NNE 3 4 1016.1 - 0.0 - Mostly cloudy 10 - - - -
31/05:30am 12.7 CALM 0 0 1016.1 - 0.0 - Partly cloudy 10 - - - -
31/05:00am 12.9 NE 1 4 1016.1 - 0.0 - Cloudy 10 - - - -
31/04:30am 13.3 ESE 3 5 1016.0 - 0.0 - Partly cloudy 10 - - - -
31/04:00am 13.4 CALM 0 0 1016.0 - 0.0 - Cloudy 10 - - - -
31/03:30am 13.4 CALM 0 0 1016.1 - 0.0 - Partly cloudy 10 - - - -
31/03:00am 13.8 SSE 1 4 1016.2 - 0.0 - Cloudy 10 - - - -
31/02:30am 13.9 CALM 0 0 1016.3 - 0.0 - Cloudy 10 - - - -
31/02:00am 14.2 CALM 0 0 1016.6 - 0.0 - Cloudy 10 - - - -
31/01:30am 14.3 SE 1 4 1016.6 - 0.0 - Partly cloudy 10 - - - -
31/01:00am 14.7 NNW 2 4 1016.4 - 0.0 - Partly cloudy 10 - - - -
31/12:30am 15.3 CALM 0 0 1016.6 - 0.0 - Partly cloudy 10 - - - -
31/12:00am 15.9 NNW 2 3 1016.8 - 0.0 - Cloudy 10 - - - -
 
Date/Time
CST
Temp
°C
Wind Pressure Rain since
9am
mm
Weather Cloud Vis
km
Sea
Height
m
Swell
Dir  Spd
kts
Gust
kts
hPa Trend Height
m
Period
s
Dir
30/11:30pm 16.6 WNW 5 6 1016.9 - 0.0 - Cloudy 10 - - - -
30/11:00pm 17.1 WNW 7 8 1016.8 - 0.0 - Cloudy 10 - - - -
30/10:30pm 17.0 W 10 16 1016.7 - 0.0 - Partly cloudy 10 - - - -
30/10:00pm 16.5 NNW 8 10 1016.0 - 0.0 - Partly cloudy 10 - - - -
30/09:30pm 17.2 N 8 11 1015.9 - 0.0 - Partly cloudy 10 - - - -
30/09:00pm 18.1 N 10 13 1015.9 - 0.0 - Cloudy 10 - - - -
30/08:30pm 18.1 N 8 12 1015.9 - 0.0 - Cloudy 10 - - - -
30/08:00pm 18.4 N 8 11 1015.9 - 0.0 - Partly cloudy 10 - - - -
30/07:30pm 18.6 N 9 11 1015.3 - 0.0 - Cloudy 10 - - - -
30/07:00pm 18.7 NNW 8 10 1015.8 - 0.0 - Cloudy 10 - - - -
30/06:30pm 19.6 NNW 11 15 1015.7 - 0.0 - Cloudy 10 - - - -
30/06:00pm 19.8 NNW 13 18 1015.4 - 0.0 - Cloudy 10 - - - -
30/05:30pm 19.9 NNW 10 14 1015.2 - 0.0 - - 10 - - - -
30/05:00pm 20.1 NNW 12 17 1014.4 - 0.0 - Partly cloudy 10 - - - -
30/04:30pm 20.5 NNW 15 21 1014.4 - 0.0 - Partly cloudy 10 - - - -
30/04:00pm 20.8 NNW 17 23 1013.9 - 0.0 - Partly cloudy 10 - - - -
30/03:30pm 21.8 NNW 20 28 1013.8 - 0.0 - Cloudy 10 - - - -
30/03:00pm 21.7 NNW 22 29 1013.8 - 0.0 - Cloudy 10 - - - -
30/02:30pm 21.2 NNW 22 27 1014.2 - 0.0 - - 10 - - - -
30/02:00pm 20.1 NNW 19 28 1014.9 - 0.0 - - 10 - - - -
30/01:30pm 19.2 NNW 21 28 1015.5 - 0.0 - - 10 - - - -
30/01:00pm 19.0 NNW 21 27 1016.3 - 0.0 - - 10 - - - -
30/12:30pm 18.1 N 20 27 1016.6 - 0.0 - Partly cloudy 10 - - - -
30/12:00pm 18.0 N 20 27 1017.4 - 0.0 - Cloudy 10 - - - -
30/11:30am 17.2 N 21 25 1018.4 - 0.0 - - 10 - - - -
30/11:00am 16.0 NNW 20 27 1018.9 - 0.0 - - 10 - - - -
30/10:30am 15.2 NNW 20 27 1019.3 - 0.0 - - 10 - - - -
30/10:00am 14.5 N 20 27 1019.5 - 0.0 - - 10 - - - -
30/09:30am 14.0 N 18 24 1019.5 - 0.0 - - 10 - - - -
30/09:00am 13.3 NNW 17 23 1019.4 - 0.0 - Cloudy 10 - - - -
30/08:30am 12.7 NNW 17 22 1019.2 - 0.0 - - 10 - - - -
30/08:00am 12.1 NNW 18 22 1019.0 - 0.0 - - 10 - - - -
30/07:30am 12.0 NNW 17 21 1019.4 - 0.0 - - 10 - - - -
30/07:00am 11.7 N 17 22 1019.2 - 0.0 - - 10 - - - -
30/06:30am 11.7 NNW 16 21 1019.3 - 0.0 - - 10 - - - -
30/06:00am 11.1 NNW 13 17 1019.4 - 0.0 - Cloudy 10 - - - -
30/05:30am 10.8 NNW 13 16 1019.4 - 0.0 - - 10 - - - -
30/05:00am 10.2 NNW 10 15 1019.4 - 0.0 - - 10 - - - -
30/04:30am 9.1 NNW 7 8 1019.5 - 0.0 - - 10 - - - -
30/04:00am 11.1 N 5 7 1019.6 - 0.0 - - 10 - - - -
30/03:30am 8.8 NNW 4 5 1019.7 - 0.0 - - 10 - - - -
30/03:00am 9.3 NNW 5 6 1020.2 - 0.0 - Cloudy 10 - - - -
30/02:30am 11.5 N 5 8 1020.3 - 0.0 - - 10 - - - -
30/02:00am 12.8 N 10 13 1020.4 - 0.0 - - 10 - - - -
30/01:30am 12.8 N 8 11 1020.7 - 0.0 - - 10 - - - -
30/01:00am 12.0 N 6 10 1021.1 - 0.0 - - 10 - - - -
30/12:30am 11.5 N 6 7 1021.4 - 0.0 - - 10 - - - -
30/12:00am 9.3 NNW 6 7 1021.8 - 0.0 - Cloudy 10 - - - -
 
Date/Time
CST
Temp
°C
Wind Pressure Rain since
9am
mm
Weather Cloud Vis
km
Sea
Height
m
Swell
Dir  Spd
kts
Gust
kts
hPa Trend Height
m
Period
s
Dir
29/11:30pm 8.7 NNW 6 7 1022.0 - 0.0 - - 10 - - - -
29/11:00pm 8.0 NNW 5 7 1022.3 - 0.0 - - 10 - - - -
29/10:30pm 7.6 NNW 5 6 1022.5 - 0.0 - - 10 - - - -
29/10:00pm 7.4 NNW 6 7 1022.7 - 0.0 - - 10 - - - -
29/09:30pm 7.5 NNW 5 7 1022.9 - 0.0 - - 10 - - - -
29/09:00pm 7.9 N 5 6 1022.8 - 0.0 - Mostly cloudy 10 - - - -
29/08:30pm 10.0 N 6 7 1022.7 - 0.0 - - 10 - - - -
29/08:00pm 9.5 N 5 6 1022.6 - 0.0 - - 10 - - - -
29/07:30pm 9.1 N 5 5 1022.3 - 0.0 - - 10 - - - -
29/07:00pm 10.7 N 4 5 1022.3 - 0.0 - - 10 - - - -
29/06:30pm 11.9 NE 3 4 1022.1 - 0.0 - - 10 - - - -
29/06:00pm 13.5 ENE 5 6 1022.1 - 0.0 - - 10 - - - -
29/05:30pm 14.8 E 4 5 1022.0 - 0.0 - - 10 - - - -
29/05:00pm 17.4 N 5 7 1021.9 - 0.0 - - 10 - - - -
29/04:30pm 18.2 NNW 6 8 1022.3 - 0.0 - - 10 - - - -
29/04:00pm 18.6 NNW 5 9 1022.4 - 0.0 - - 10 - - - -
29/03:30pm 18.3 NW 7 12 1022.6 - 0.0 - - 10 - - - -
29/03:00pm 18.3 WNW 6 10 1022.8 - 0.0 - Mostly cloudy 10 - - - -
29/02:30pm 17.8 NNW 9 13 1023.0 - 0.0 - - 10 - - - -
29/02:00pm 18.1 NW 10 14 1023.2 - 0.0 - - 10 - - - -
29/01:30pm 18.0 NW 10 14 1023.5 - 0.0 - - 10 - - - -
29/01:00pm 17.5 NNW 11 14 1023.8 - 0.0 - - 10 - - - -
29/12:30pm 16.7 NW 11 16 1024.3 - 0.0 - - 10 - - - -
29/12:00pm 16.6 NNW 11 16 1024.9 - 0.0 - Mostly cloudy 10 - - - -
29/11:30am 16.5 NW 12 16 1025.3 - 0.0 - - 10 - - - -
29/11:00am 15.2 NNW 12 15 1025.5 - 0.0 - - 10 - - - -
29/10:30am 13.8 NNW 10 13 1025.8 - 0.0 - - 10 - - - -
29/10:00am 11.9 NNW 8 11 1026.2 - 0.0 - - 10 - - - -
29/09:30am 9.6 NNW 6 9 1026.2 - 0.0 - - 10 - - - -
29/09:00am 7.6 NNW 6 8 1026.4 - 0.0 - Cloudy 10 - - - -
29/08:30am 6.3 NNW 5 7 1026.5 - 0.0 - - 10 - - - -
29/08:00am 5.0 NNW 6 7 1026.5 - 0.0 - - 10 - - - -
29/07:30am 4.1 NNW 6 7 1026.5 - 0.0 - - 10 - - - -
29/07:00am 3.7 N 7 8 1026.2 - 0.0 - - 10 - - - -
29/06:30am 2.6 NNW 6 8 1026.1 - 0.0 - - 9 - - - -
29/06:00am 2.3 NW 5 6 1025.9 - 0.0 - - 9 - - - -
29/05:30am 2.1 NW 6 6 1025.7 - 0.0 - - 10 - - - -
29/05:00am 3.1 NW 5 7 1025.5 - 0.0 - - 9 - - - -
29/04:30am 3.1 NW 5 6 1025.6 - 0.0 - - 9 - - - -
29/04:22am 2.8 NW 5 6 1025.5 - 0.0 - Partly cloudy 8 - - - -
29/04:19am 2.8 NW 4 6 1025.5 - 0.0 - Partly cloudy 8 - - - -
29/04:00am 3.1 NW 5 6 1025.5 - 0.0 - Partly cloudy 4 - - - -
29/03:45am 3.4 NNW 5 6 1025.6 - 0.0 - Partly cloudy 0.6 - - - -
29/03:38am 3.2 NW 5 7 1025.6 - 0.0 - Partly cloudy 5 - - - -
29/03:30am 3.1 WNW 5 7 1025.9 - 0.0 - - 10 - - - -
29/03:00am 3.1 N 6 7 1025.6 - 0.0 - - 10 - - - -
29/02:30am 3.9 N 6 8 1025.8 - 0.0 - - 10 - - - -
29/02:00am 3.1 NNW 5 6 1026.5 - 0.0 - - 10 - - - -
29/01:30am 3.6 NW 5 5 1026.7 - 0.0 - - 10 - - - -
29/01:00am 3.8 WNW 7 8 1026.7 - 0.0 - - 10 - - - -
29/12:30am 3.6 NW 5 5 1026.5 - 0.0 - - 10 - - - -
29/12:00am 3.8 NNW 5 6 1026.7 - 0.0 - - 10 - - - -
 
Date/Time
CST
Temp
°C
Wind Pressure Rain since
9am
mm
Weather Cloud Vis
km
Sea
Height
m
Swell
Dir  Spd
kts
Gust
kts
hPa Trend Height
m
Period
s
Dir
28/11:30pm 3.8 NNW 4 5 1027.0 - 0.0 - - 10 - - - -
28/11:00pm 4.3 W 4 5 1027.2 - 0.0 - - 10 - - - -
28/10:30pm 5.2 NNW 3 5 1027.1 - 0.0 - - 10 - - - -
28/10:00pm 6.0 CALM 0 0 1027.1 - 0.0 - - 10 - - - -
28/09:30pm 5.5 W 4 5 1027.6 - 0.0 - - 10 - - - -
28/09:00pm 6.5 WSW 4 4 1027.7 - 0.0 - - 10 - - - -
28/08:30pm 6.9 SW 5 5 1027.7 - 0.0 - - 10 - - - -
28/08:00pm 8.1 W 3 7 1027.7 - 0.0 - - 10 - - - -
28/07:30pm 9.4 NE 5 5 1027.7 - 0.0 - - 10 - - - -
28/07:00pm 9.6 ENE 5 6 1027.9 - 0.0 - - 10 - - - -
28/06:30pm 9.7 E 5 6 1027.7 - 0.0 - - 10 - - - -
28/06:00pm 10.6 ESE 4 5 1027.7 - 0.0 - - 10 - - - -
28/05:30pm 11.5 ESE 6 8 1027.4 - 0.0 - - 10 - - - -
28/05:00pm 12.5 E 7 10 1027.3 - 0.0 - - 10 - - - -
28/04:30pm 12.9 E 9 11 1027.2 - 0.0 - - 10 - - - -
28/04:00pm 12.9 E 9 12 1027.5 - 0.0 - - 10 - - - -
28/03:30pm 13.0 E 10 12 1027.5 - 0.0 - Partly cloudy 10 - - - -
28/03:00pm 14.1 ENE 8 10 1027.5 - 0.0 - Mostly clear 10 - - - -

Other Formats:

Comma delimited format used in spreadsheet applications
http://www.bom.gov.au/fwo/IDS60701/IDS60701.95664.axf

JavaScript Object Notation format (JSON) in row-major order
http://www.bom.gov.au/fwo/IDS60701/IDS60701.95664.json